Time;durP1;ratioP1;P1;durP2;ratioP2;P2;SDS_P1;SDS_P2;PMS_P1;PMS_P2;Temp;Humidity;BMP_temperature;BMP_pressure;BME280_temperature;BME280_humidity;BME280_pressure;Samples;Min_cycle;Max_cycle;Signal;HPM_P1;HPM_P2
2024/04/06 00:00:28;;;;;;;4.30;3.10;;;;;;;12.19;80.93;99894.80;107685;1260;72689;-82
2024/04/06 00:02:55;;;;;;;3.70;3.00;;;;;;;12.10;81.16;99898.46;107736;1254;59279;-83
2024/04/06 00:05:22;;;;;;;5.20;3.60;;;;;;;12.01;81.57;99903.54;107629;1254;59187;-81
2024/04/06 00:07:51;;;;;;;4.10;3.50;;;;;;;11.92;82.02;99907.23;107592;1256;73786;-80
2024/04/06 00:10:31;;;;;;;3.40;2.90;;;;;;;11.92;82.20;99908.34;107158;1259;71035;-81
2024/04/06 00:12:59;;;;;;;4.70;3.40;;;;;;;11.89;82.15;99910.78;106697;1259;70852;-84
2024/04/06 00:15:26;;;;;;;4.50;3.90;;;;;;;11.78;82.69;99910.52;107653;1254;60296;-79
2024/04/06 00:17:53;;;;;;;4.10;3.20;;;;;;;11.69;83.19;99913.99;108013;1255;60953;-80
2024/04/06 00:20:21;;;;;;;5.00;3.20;;;;;;;11.61;83.55;99915.63;108596;1260;74266;-82
2024/04/06 00:22:48;;;;;;;5.90;3.50;;;;;;;11.61;83.56;99917.36;109147;1254;68901;-83
2024/04/06 00:25:15;;;;;;;4.60;3.90;;;;;;;11.59;83.51;99918.62;108662;1258;71204;-83
2024/04/06 00:27:43;;;;;;;3.90;3.30;;;;;;;11.50;84.00;99920.34;107682;1254;60380;-81
2024/04/06 00:30:10;;;;;;;5.10;3.90;;;;;;;11.44;84.45;99915.20;107942;1254;60236;-80
2024/04/06 00:32:38;;;;;;;4.10;3.40;;;;;;;11.41;84.65;99911.58;107762;1254;72186;-82
2024/04/06 00:35:05;;;;;;;3.80;3.10;;;;;;;11.47;84.46;99907.38;107515;1259;69253;-81
2024/04/06 00:37:32;;;;;;;4.00;3.30;;;;;;;11.54;84.46;99913.77;107060;1259;70297;-82
2024/04/06 00:40:00;;;;;;;3.80;3.40;;;;;;;11.48;84.57;99913.52;108441;1259;58890;-82
2024/04/06 00:42:27;;;;;;;3.80;3.10;;;;;;;11.43;85.13;99916.72;109045;1254;60338;-81
2024/04/06 00:44:55;;;;;;;3.50;3.20;;;;;;;11.38;85.14;99914.23;108406;1254;73229;-81
2024/04/06 00:47:22;;;;;;;4.70;3.60;;;;;;;11.41;85.25;99909.98;107988;1259;67724;-84
2024/04/06 00:49:50;;;;;;;4.00;3.20;;;;;;;11.42;85.10;99911.15;107679;1257;72665;-81
2024/04/06 00:52:17;;;;;;;4.70;3.40;;;;;;;11.37;85.52;99916.67;108032;1259;61107;-83
2024/04/06 00:54:44;;;;;;;3.50;2.90;;;;;;;11.32;85.60;99923.26;107659;1257;59692;-82
2024/04/06 00:57:12;;;;;;;8.00;3.10;;;;;;;11.36;85.72;99924.02;107969;1254;73742;-84
2024/04/06 00:59:39;;;;;;;3.80;3.10;;;;;;;11.42;85.42;99924.08;108084;1254;69469;-81
2024/04/06 01:02:06;;;;;;;4.20;3.10;;;;;;;11.41;85.57;99925.28;108527;1255;71380;-84
2024/04/06 01:04:34;;;;;;;5.90;3.90;;;;;;;11.39;85.61;99927.64;108195;1254;59334;-79
2024/04/06 01:07:02;;;;;;;5.10;3.40;;;;;;;11.37;85.57;99924.31;107496;1254;60284;-84
2024/04/06 01:09:29;;;;;;;4.80;3.30;;;;;;;11.46;85.22;99922.31;107864;1254;72729;-83
2024/04/06 01:11:56;;;;;;;3.40;2.80;;;;;;;11.52;84.68;99917.58;108385;1254;70437;-84
2024/04/06 01:14:24;;;;;;;5.10;3.20;;;;;;;11.49;84.65;99914.98;109007;1254;73674;-81
2024/04/06 01:16:51;;;;;;;3.00;2.70;;;;;;;11.45;84.50;99922.14;109123;1254;59009;-83
2024/04/06 01:19:19;;;;;;;3.90;3.00;;;;;;;11.41;84.33;99921.05;108703;1254;60466;-81
2024/04/06 01:21:46;;;;;;;3.40;2.80;;;;;;;11.44;84.10;99915.20;108232;1254;74907;-82
2024/04/06 01:24:26;;;;;;;3.90;3.00;;;;;;;11.47;83.92;99914.73;107364;1259;68744;-81
2024/04/06 01:26:54;;;;;;;3.40;3.10;;;;;;;11.41;83.98;99911.48;107559;1254;71480;-83
2024/04/06 01:29:22;;;;;;;4.30;3.10;;;;;;;11.30;84.32;99908.77;106922;1260;60333;-82
2024/04/06 01:31:49;;;;;;;3.30;2.60;;;;;;;11.24;84.61;99909.85;106889;1254;60909;-82
2024/04/06 01:34:16;;;;;;;3.90;3.50;;;;;;;11.24;84.66;99903.79;106429;1260;72563;-82
2024/04/06 01:36:44;;;;;;;6.00;4.50;;;;;;;11.25;84.52;99904.22;106745;1260;68835;-82
2024/04/06 01:39:11;;;;;;;5.40;3.60;;;;;;;11.18;84.71;99899.95;106446;1257;70463;-79
2024/04/06 01:41:41;;;;;;;4.20;3.00;;;;;;;11.10;85.00;99897.65;106389;1256;61207;-80
2024/04/06 01:44:09;;;;;;;3.40;3.10;;;;;;;10.98;85.55;99897.23;107142;1257;60457;-83
2024/04/06 01:46:36;;;;;;;5.00;4.10;;;;;;;10.96;85.42;99896.50;108101;1260;72607;-79
2024/04/06 01:49:03;;;;;;;4.00;3.10;;;;;;;10.94;85.49;99891.78;108136;1255;70630;-83
2024/04/06 01:51:30;;;;;;;4.30;3.90;;;;;;;10.83;85.85;99894.52;107422;1260;72212;-81
2024/04/06 01:53:58;;;;;;;5.00;3.20;;;;;;;10.73;86.42;99896.19;107948;1254;60527;-79
2024/04/06 01:56:26;;;;;;;4.20;3.40;;;;;;;10.72;86.44;99890.29;107890;1256;60451;-78
2024/04/06 01:58:53;;;;;;;5.00;3.80;;;;;;;10.70;86.57;99889.59;107404;1260;72594;-81
2024/04/06 02:01:21;;;;;;;4.40;4.00;;;;;;;10.60;86.91;99893.63;107423;1254;68964;-80
2024/04/06 02:03:48;;;;;;;4.60;3.80;;;;;;;10.51;87.42;99899.77;107923;1259;72555;-82
2024/04/06 02:06:17;;;;;;;6.00;3.90;;;;;;;10.47;87.61;99900.89;108505;1256;60624;-84
2024/04/06 02:08:44;;;;;;;5.20;3.70;;;;;;;10.49;87.64;99898.73;107964;1259;60409;-85
2024/04/06 02:11:11;;;;;;;4.80;3.90;;;;;;;10.46;87.52;99893.89;108570;1255;73970;-83
2024/04/06 02:13:38;;;;;;;4.40;3.80;;;;;;;10.39;88.25;99896.73;109201;1254;68849;-84
2024/04/06 02:16:06;;;;;;;4.20;3.60;;;;;;;10.34;88.19;99895.89;108108;1254;71767;-79
2024/04/06 02:18:33;;;;;;;5.90;3.70;;;;;;;10.37;88.08;99899.05;106822;1255;60517;-83
2024/04/06 02:21:00;;;;;;;4.90;4.00;;;;;;;10.39;88.04;99900.67;106520;1254;61225;-82
2024/04/06 02:23:27;;;;;;;4.20;3.60;;;;;;;10.32;88.28;99900.49;106255;1254;73863;-79
2024/04/06 02:25:55;;;;;;;4.30;3.50;;;;;;;10.25;88.33;99898.88;107721;1253;71345;-83
2024/04/06 02:28:22;;;;;;;4.50;3.70;;;;;;;10.27;88.11;99901.05;107160;1256;71762;-82
2024/04/06 02:30:49;;;;;;;5.20;3.50;;;;;;;10.28;88.26;99900.52;106441;1254;61273;-81
2024/04/06 02:33:16;;;;;;;5.70;4.00;;;;;;;10.25;88.53;99901.73;106280;1260;60363;-82
2024/04/06 02:35:44;;;;;;;5.90;4.10;;;;;;;10.21;88.64;99903.42;106189;1254;77179;-85
2024/04/06 02:38:11;;;;;;;4.40;4.00;;;;;;;10.24;88.16;99905.21;106377;1254;70116;-80
2024/04/06 02:40:39;;;;;;;4.60;3.80;;;;;;;10.28;88.21;99904.34;106447;1254;71756;-82
2024/04/06 02:43:06;;;;;;;5.50;4.90;;;;;;;10.21;88.23;99906.88;106179;1254;61103;-82
2024/04/06 02:45:34;;;;;;;4.40;3.90;;;;;;;10.15;88.46;99907.77;107030;1254;61162;-82
2024/04/06 02:48:01;;;;;;;5.80;4.00;;;;;;;10.17;88.70;99907.95;107227;1254;75100;-79
2024/04/06 02:50:28;;;;;;;4.70;4.20;;;;;;;10.18;88.58;99905.66;106918;1260;68756;-78
2024/04/06 02:52:55;;;;;;;5.30;4.30;;;;;;;10.16;88.71;99904.70;106359;1256;71741;-80
2024/04/06 02:55:23;;;;;;;5.50;4.30;;;;;;;10.09;88.98;99906.45;106308;1256;61942;-81
2024/04/06 02:57:50;;;;;;;5.10;4.20;;;;;;;10.12;89.34;99900.97;106216;1260;61147;-81
2024/04/06 03:00:17;;;;;;;6.30;4.30;;;;;;;10.13;89.12;99894.30;106427;1254;74882;-82
2024/04/06 03:02:44;;;;;;;4.80;4.30;;;;;;;10.08;89.04;99893.47;107267;1254;69108;-82
2024/04/06 03:05:12;;;;;;;4.80;4.20;;;;;;;10.02;89.46;99891.75;107303;1254;72740;-80
2024/04/06 03:07:39;;;;;;;6.10;4.40;;;;;;;10.05;89.43;99888.95;108146;1253;61173;-82
2024/04/06 03:10:07;;;;;;;6.90;4.40;;;;;;;10.09;89.26;99884.68;109117;1253;58807;-84
2024/04/06 03:12:34;;;;;;;6.00;4.80;;;;;;;10.04;89.16;99890.47;108109;1254;73591;-82
2024/04/06 03:15:01;;;;;;;6.00;4.30;;;;;;;9.99;89.64;99891.57;107330;1254;68877;-83
2024/04/06 03:17:29;;;;;;;7.10;4.10;;;;;;;10.01;89.74;99892.05;107306;1254;71176;-81
2024/04/06 03:19:56;;;;;;;5.90;4.10;;;;;;;10.01;89.68;99891.81;106326;1256;61286;-82
2024/04/06 03:22:23;;;;;;;6.80;4.80;;;;;;;9.97;89.99;99893.69;106431;1258;59832;-84
2024/04/06 03:24:53;;;;;;;5.70;4.40;;;;;;;9.91;90.00;99894.69;106387;1260;73670;-81
2024/04/06 03:27:20;;;;;;;5.20;4.60;;;;;;;9.95;89.94;99891.42;106430;1259;71191;-82
2024/04/06 03:29:48;;;;;;;5.60;4.20;;;;;;;9.98;89.94;99895.35;106381;1254;73197;-80
2024/04/06 03:32:15;;;;;;;6.90;4.80;;;;;;;9.94;90.19;99891.91;106363;1254;60817;-81
2024/04/06 03:34:43;;;;;;;6.20;4.70;;;;;;;9.90;90.44;99889.19;106374;1254;61291;-81
2024/04/06 03:37:10;;;;;;;4.50;3.90;;;;;;;9.90;90.19;99891.58;106263;1258;73733;-81
2024/04/06 03:39:38;;;;;;;5.10;4.30;;;;;;;9.97;90.08;99890.30;106191;1256;71406;-79
2024/04/06 03:42:06;;;;;;;8.30;5.00;;;;;;;9.98;90.21;99889.68;106822;1254;71469;-78
2024/04/06 03:44:33;;;;;;;6.40;5.00;;;;;;;9.96;90.07;99885.89;108271;1254;59412;-80
2024/04/06 03:47:00;;;;;;;5.90;5.30;;;;;;;9.95;90.22;99884.89;106861;1258;61124;-81
2024/04/06 03:49:28;;;;;;;5.00;4.40;;;;;;;10.03;90.05;99886.67;106405;1259;73944;-78
2024/04/06 03:51:55;;;;;;;7.40;4.90;;;;;;;10.11;89.58;99886.07;106278;1253;70288;-81
2024/04/06 03:54:22;;;;;;;5.30;4.80;;;;;;;10.11;89.49;99880.40;106580;1259;72738;-81
2024/04/06 03:56:49;;;;;;;7.10;5.00;;;;;;;10.09;89.58;99878.48;106530;1257;61344;-78
2024/04/06 03:59:17;;;;;;;5.20;4.30;;;;;;;10.11;89.48;99874.89;106362;1254;61250;-81
2024/04/06 04:01:44;;;;;;;5.70;4.70;;;;;;;10.21;88.83;99879.00;106219;1254;74728;-79
2024/04/06 04:04:11;;;;;;;5.40;4.80;;;;;;;10.22;88.60;99874.29;108016;1254;68862;-80
2024/04/06 04:06:39;;;;;;;5.50;4.80;;;;;;;10.17;88.61;99874.05;108988;1254;71503;-81
2024/04/06 04:09:06;;;;;;;6.20;5.40;;;;;;;10.16;88.72;99875.30;108815;1256;61157;-80
2024/04/06 04:11:33;;;;;;;8.40;5.90;;;;;;;10.20;88.74;99877.07;107978;1257;61348;-80
2024/04/06 04:14:01;;;;;;;7.90;6.40;;;;;;;10.21;88.60;99879.70;107877;1254;77024;-79
2024/04/06 04:16:28;;;;;;;6.40;5.80;;;;;;;10.13;88.89;99875.96;107161;1255;70946;-80
2024/04/06 04:18:55;;;;;;;6.50;5.80;;;;;;;10.10;89.18;99878.94;106153;1257;71611;-81
2024/04/06 04:21:23;;;;;;;7.30;6.60;;;;;;;10.13;89.22;99877.06;106300;1258;61203;-81
2024/04/06 04:23:51;;;;;;;8.60;6.10;;;;;;;10.11;89.39;99876.88;106450;1254;61104;-81
2024/04/06 04:26:18;;;;;;;7.20;5.70;;;;;;;10.04;89.57;99876.16;106365;1254;73693;-80
2024/04/06 04:28:45;;;;;;;6.60;6.00;;;;;;;10.05;89.83;99875.17;106313;1258;68967;-81
2024/04/06 04:31:17;;;;;;;11.00;7.00;;;;;;;10.13;89.19;99877.69;106293;1256;71410;-81
2024/04/06 04:33:44;;;;;;;9.80;6.40;;;;;;;10.13;89.33;99878.77;106181;1259;61307;-81
2024/04/06 04:36:12;;;;;;;7.00;6.20;;;;;;;10.10;89.31;99882.09;106167;1255;61290;-80
2024/04/06 04:38:40;;;;;;;6.20;5.60;;;;;;;10.12;88.91;99883.45;106382;1258;74720;-81
2024/04/06 04:41:07;;;;;;;10.90;6.60;;;;;;;10.18;88.68;99887.76;106448;1256;68890;-81
2024/04/06 04:43:34;;;;;;;7.00;6.30;;;;;;;10.21;88.81;99883.81;106651;1253;73953;-82
2024/04/06 04:46:02;;;;;;;8.50;6.50;;;;;;;10.19;88.72;99882.92;106786;1259;61621;-82
2024/04/06 04:48:51;;;;;;;7.00;5.70;;;;;;;10.21;88.52;99884.77;106792;1253;61150;-79
2024/04/06 04:51:19;;;;;;;9.20;6.20;;;;;;;10.32;88.22;99882.06;106663;1254;73972;-78
2024/04/06 04:53:47;;;;;;;9.10;6.50;;;;;;;10.37;88.12;99882.13;107109;1254;70190;-82
2024/04/06 04:56:16;;;;;;;7.70;6.50;;;;;;;10.37;87.66;99875.15;108181;1254;72551;-82
2024/04/06 04:58:43;;;;;;;8.40;7.20;;;;;;;10.39;87.77;99879.77;108066;1257;60632;-82
2024/04/06 05:01:10;;;;;;;6.80;6.10;;;;;;;10.46;86.98;99877.77;108952;1254;58838;-80
2024/04/06 05:03:37;;;;;;;9.30;7.10;;;;;;;10.52;86.80;99880.67;108901;1253;73409;-84
2024/04/06 05:06:05;;;;;;;7.30;5.90;;;;;;;10.54;87.08;99876.06;108026;1254;69331;-85
2024/04/06 05:08:32;;;;;;;7.60;6.80;;;;;;;10.57;87.09;99875.70;108107;1256;71763;-84
2024/04/06 05:11:00;;;;;;;8.70;6.70;;;;;;;10.64;86.39;99885.77;107658;1254;61770;-82
2024/04/06 05:13:27;;;;;;;7.60;6.70;;;;;;;10.74;85.83;99884.72;107585;1255;61164;-81
2024/04/06 05:15:55;;;;;;;8.70;7.00;;;;;;;10.75;85.43;99886.67;108240;1257;73660;-84
2024/04/06 05:18:24;;;;;;;8.00;7.00;;;;;;;10.72;85.32;99883.31;108602;1258;71416;-82
2024/04/06 05:20:52;;;;;;;10.20;7.10;;;;;;;10.71;85.28;99880.76;107610;1253;72173;-84
2024/04/06 05:23:20;;;;;;;8.40;7.20;;;;;;;10.80;84.56;99883.33;107043;1254;61114;-80
2024/04/06 05:25:48;;;;;;;7.10;6.40;;;;;;;10.81;83.98;99878.80;107185;1258;61410;-84
2024/04/06 05:28:20;;;;;;;8.10;6.60;;;;;;;10.75;84.36;99884.55;106874;1254;74614;-84
2024/04/06 05:30:47;;;;;;;8.00;5.60;;;;;;;10.77;84.22;99886.48;106238;1260;69267;-81
2024/04/06 05:33:16;;;;;;;7.30;5.80;;;;;;;10.83;83.93;99887.80;106324;1259;71477;-83
2024/04/06 05:35:47;;;;;;;8.00;6.40;;;;;;;10.79;83.81;99884.88;106303;1256;61235;-82
2024/04/06 05:38:15;;;;;;;6.30;5.20;;;;;;;10.76;83.73;99885.75;106381;1254;62206;-81
2024/04/06 05:40:43;;;;;;;8.10;5.80;;;;;;;10.80;83.94;99887.64;106157;1253;74557;-83
2024/04/06 05:43:11;;;;;;;7.10;5.50;;;;;;;10.91;83.59;99885.15;106288;1254;68755;-83
2024/04/06 05:45:40;;;;;;;9.10;6.30;;;;;;;10.96;83.30;99886.73;106025;1260;71487;-83
2024/04/06 05:48:08;;;;;;;9.70;7.40;;;;;;;10.98;83.06;99885.77;106364;1254;61897;-85
2024/04/06 05:50:37;;;;;;;8.90;7.10;;;;;;;11.04;82.84;99883.48;106507;1253;61313;-85
2024/04/06 05:53:04;;;;;;;10.80;7.40;;;;;;;11.15;82.25;99883.02;108650;1254;73465;-83
2024/04/06 05:55:31;;;;;;;9.50;7.20;;;;;;;11.19;82.21;99880.70;108766;1254;69297;-82
2024/04/06 05:57:59;;;;;;;9.90;7.90;;;;;;;11.18;81.86;99884.13;109085;1259;71239;-80
2024/04/06 06:00:26;;;;;;;9.20;7.80;;;;;;;11.16;81.97;99877.79;108005;1256;60469;-81
2024/04/06 06:02:54;;;;;;;8.70;7.10;;;;;;;11.24;81.37;99876.63;107504;1254;59942;-82
2024/04/06 06:05:22;;;;;;;7.70;6.50;;;;;;;11.31;81.27;99874.22;107187;1254;73315;-84
2024/04/06 06:07:49;;;;;;;8.00;6.70;;;;;;;11.34;81.03;99874.79;106426;1254;69221;-85
2024/04/06 06:10:18;;;;;;;9.20;6.90;;;;;;;11.37;81.24;99868.79;107016;1253;73450;-81
2024/04/06 06:12:45;;;;;;;10.00;6.30;;;;;;;11.46;81.01;99869.23;106795;1254;61330;-78
2024/04/06 06:15:13;;;;;;;6.40;5.50;;;;;;;11.67;80.45;99859.98;107304;1255;61190;-79
2024/04/06 06:17:40;;;;;;;7.80;6.30;;;;;;;11.92;79.79;99862.00;107294;1259;74764;-79
2024/04/06 06:20:08;;;;;;;8.10;6.20;;;;;;;12.07;78.92;99857.40;106686;1259;69189;-80
2024/04/06 06:22:35;;;;;;;7.70;5.70;;;;;;;12.22;78.19;99858.21;106290;1254;71777;-83
2024/04/06 06:25:03;;;;;;;8.70;5.60;;;;;;;12.38;76.98;99862.08;107215;1254;60933;-78
2024/04/06 06:27:31;;;;;;;7.10;5.80;;;;;;;12.50;75.57;99861.73;106582;1255;61306;-81
2024/04/06 06:30:02;;;;;;;5.90;4.50;;;;;;;12.61;75.44;99851.55;106331;1254;73372;-78
2024/04/06 06:32:29;;;;;;;6.70;4.60;;;;;;;12.84;74.81;99850.45;106503;1254;72980;-80
2024/04/06 06:34:57;;;;;;;6.30;4.40;;;;;;;13.11;73.15;99848.02;106282;1258;71183;-78
2024/04/06 06:37:24;;;;;;;5.30;4.10;;;;;;;13.28;72.51;99848.95;106311;1254;61938;-81
2024/04/06 06:39:54;;;;;;;7.20;4.00;;;;;;;13.42;71.68;99845.82;106073;1253;61237;-79
2024/04/06 06:42:24;;;;;;;6.90;4.20;;;;;;;13.59;71.29;99843.30;106351;1257;73486;-80
2024/04/06 06:44:53;;;;;;;5.70;3.00;;;;;;;13.76;70.25;99844.12;106327;1260;69589;-79
2024/04/06 06:47:22;;;;;;;4.20;3.50;;;;;;;13.91;69.18;99841.18;106044;1253;71660;-78
2024/04/06 06:49:51;;;;;;;5.60;2.90;;;;;;;14.05;68.30;99842.42;107164;1256;62330;-78
2024/04/06 06:52:18;;;;;;;5.70;3.40;;;;;;;14.17;67.20;99841.16;107568;1256;61243;-80
2024/04/06 06:54:45;;;;;;;4.20;3.20;;;;;;;14.26;66.83;99840.91;108443;1259;73689;-79
2024/04/06 06:57:13;;;;;;;6.80;3.50;;;;;;;14.36;66.18;99835.30;107734;1258;71121;-79
2024/04/06 06:59:41;;;;;;;4.20;2.90;;;;;;;14.49;65.83;99832.67;106311;1256;71797;-78
2024/04/06 07:02:11;;;;;;;2.40;2.00;;;;;;;14.63;64.91;99832.73;106265;1255;61904;-75
2024/04/06 07:04:39;;;;;;;3.00;2.20;;;;;;;14.69;63.88;99828.34;106062;1254;61165;-75
2024/04/06 07:07:07;;;;;;;2.80;2.30;;;;;;;14.67;63.20;99826.45;106079;1259;73861;-76
2024/04/06 07:09:34;;;;;;;6.10;2.40;;;;;;;14.59;63.08;99818.19;106134;1259;69115;-79
2024/04/06 07:12:02;;;;;;;4.70;2.80;;;;;;;14.57;63.36;99818.51;105900;1260;75213;-76
2024/04/06 07:14:30;;;;;;;4.50;2.10;;;;;;;14.55;63.53;99814.92;106145;1254;61245;-79
2024/04/06 07:16:58;;;;;;;2.90;2.20;;;;;;;14.55;63.33;99822.81;105737;1261;61256;-76
2024/04/06 07:19:25;;;;;;;2.70;2.30;;;;;;;14.53;63.41;99812.98;106053;1256;74642;-77
2024/04/06 07:21:53;;;;;;;5.00;3.30;;;;;;;14.55;63.79;99808.15;105746;1258;72411;-78
2024/04/06 07:24:21;;;;;;;4.60;2.70;;;;;;;14.60;63.75;99807.14;105951;1258;75108;-75
2024/04/06 07:26:48;;;;;;;5.70;3.00;;;;;;;14.65;63.64;99808.51;106068;1254;62230;-76
2024/04/06 07:29:16;;;;;;;3.70;2.70;;;;;;;14.68;63.86;99801.33;106254;1259;61128;-77
2024/04/06 07:31:43;;;;;;;4.80;3.20;;;;;;;14.72;63.42;99792.89;106814;1254;75873;-76
2024/04/06 07:34:11;;;;;;;3.70;3.00;;;;;;;14.76;63.47;99790.69;107335;1257;69318;-77
2024/04/06 07:36:39;;;;;;;3.40;2.80;;;;;;;14.85;63.42;99786.48;106201;1256;72948;-77
2024/04/06 07:39:07;;;;;;;4.50;3.40;;;;;;;14.94;62.79;99786.13;105994;1256;61235;-75
2024/04/06 07:41:37;;;;;;;4.40;2.80;;;;;;;15.02;62.75;99787.87;105990;1254;61289;-77
2024/04/06 07:44:05;;;;;;;3.20;2.80;;;;;;;15.08;62.09;99779.15;105931;1260;73663;-76
2024/04/06 07:46:33;;;;;;;6.20;3.30;;;;;;;15.14;62.11;99778.10;105907;1256;69968;-75
2024/04/06 07:49:00;;;;;;;4.90;2.70;;;;;;;15.23;61.96;99773.25;106887;1254;71489;-76
2024/04/06 07:51:28;;;;;;;7.80;2.80;;;;;;;15.32;61.24;99775.61;108502;1254;61946;-74
2024/04/06 07:53:55;;;;;;;3.40;2.60;;;;;;;15.38;60.77;99765.02;107821;1253;59911;-77
2024/04/06 07:56:22;;;;;;;3.70;2.10;;;;;;;15.43;60.83;99759.69;106483;1253;75386;-78
2024/04/06 07:58:50;;;;;;;5.40;2.50;;;;;;;15.56;60.57;99761.02;106673;1258;69269;-76
2024/04/06 08:01:17;;;;;;;7.40;2.80;;;;;;;15.70;59.26;99757.52;106572;1254;72789;-79
2024/04/06 08:03:45;;;;;;;7.00;2.80;;;;;;;15.80;59.08;99750.83;106493;1258;61348;-78
2024/04/06 08:06:13;;;;;;;3.40;2.40;;;;;;;15.90;59.21;99747.02;107692;1253;61011;-77
2024/04/06 08:08:40;;;;;;;3.30;2.40;;;;;;;16.04;58.91;99747.27;107120;1255;74272;-75
2024/04/06 08:11:09;;;;;;;6.00;3.00;;;;;;;16.21;58.08;99740.23;107103;1253;70488;-74
2024/04/06 08:13:38;;;;;;;3.70;2.70;;;;;;;16.34;57.74;99739.03;107641;1255;73660;-77
2024/04/06 08:16:05;;;;;;;4.60;2.00;;;;;;;16.43;57.12;99732.15;108004;1254;59722;-78
2024/04/06 08:18:33;;;;;;;3.80;2.20;;;;;;;16.50;56.29;99736.85;108293;1254;62097;-77
2024/04/06 08:21:01;;;;;;;3.20;2.20;;;;;;;16.60;55.73;99738.79;106861;1259;76309;-76
2024/04/06 08:23:28;;;;;;;3.30;2.00;;;;;;;16.63;54.67;99731.94;106409;1254;69342;-78
2024/04/06 08:25:56;;;;;;;4.70;2.20;;;;;;;16.64;54.80;99729.04;106655;1255;73731;-80
2024/04/06 08:28:23;;;;;;;5.00;2.40;;;;;;;16.71;55.00;99733.90;107852;1256;61251;-81
2024/04/06 08:30:51;;;;;;;2.20;2.00;;;;;;;16.76;54.87;99728.54;106519;1254;61267;-76
2024/04/06 08:33:19;;;;;;;4.00;2.20;;;;;;;16.87;55.10;99723.23;106366;1257;74531;-78
2024/04/06 08:35:46;;;;;;;3.60;2.10;;;;;;;17.03;53.58;99720.83;105974;1258;68557;-76
2024/04/06 08:38:14;;;;;;;5.60;2.50;;;;;;;17.22;53.27;99718.58;106466;1255;74002;-76
2024/04/06 08:40:41;;;;;;;3.30;1.70;;;;;;;17.44;53.16;99717.16;106465;1257;61798;-75
2024/04/06 08:43:11;;;;;;;3.90;2.50;;;;;;;17.66;52.61;99716.55;106182;1254;61283;-75
2024/04/06 08:45:39;;;;;;;3.10;2.10;;;;;;;17.77;52.08;99715.09;106817;1254;75687;-74
2024/04/06 08:48:10;;;;;;;4.10;2.40;;;;;;;17.86;51.69;99712.21;107689;1256;70679;-77
2024/04/06 08:50:38;;;;;;;6.10;2.60;;;;;;;17.94;50.31;99719.61;106788;1256;72865;-75
2024/04/06 08:53:05;;;;;;;3.90;2.40;;;;;;;17.99;50.08;99707.61;106249;1260;61770;-78
2024/04/06 08:55:33;;;;;;;2.50;1.90;;;;;;;18.03;49.81;99708.02;106160;1254;61224;-75
2024/04/06 08:58:00;;;;;;;2.60;2.00;;;;;;;18.09;48.97;99718.64;105971;1260;75105;-75
2024/04/06 09:00:28;;;;;;;4.50;2.00;;;;;;;18.12;48.85;99700.30;105963;1253;71734;-75
2024/04/06 09:02:55;;;;;;;4.60;2.40;;;;;;;18.34;48.72;99704.46;106276;1253;74957;-77
2024/04/06 09:05:23;;;;;;;3.50;2.30;;;;;;;18.59;48.41;99693.94;106289;1258;61247;-76
2024/04/06 09:07:53;;;;;;;2.10;1.90;;;;;;;18.82;47.95;99689.29;106600;1256;61979;-76
2024/04/06 09:10:25;;;;;;;4.60;1.90;;;;;;;19.13;46.87;99686.85;106232;1253;76705;-76
2024/04/06 09:12:53;;;;;;;3.30;2.50;;;;;;;19.59;46.39;99685.27;107693;1253;72178;-74
2024/04/06 09:15:22;;;;;;;4.10;1.60;;;;;;;20.11;44.68;99694.83;106494;1253;73665;-77
2024/04/06 09:17:49;;;;;;;3.00;1.90;;;;;;;20.34;43.81;99694.63;106419;1258;61379;-76
2024/04/06 09:20:17;;;;;;;2.20;1.90;;;;;;;20.33;44.08;99687.15;106548;1253;62223;-75
2024/04/06 09:22:46;;;;;;;3.10;2.00;;;;;;;20.36;44.28;99684.81;106603;1253;75582;-76
2024/04/06 09:25:13;;;;;;;2.80;1.70;;;;;;;20.58;43.76;99680.31;106409;1253;70216;-75
2024/04/06 09:27:45;;;;;;;3.60;2.10;;;;;;;20.94;43.12;99677.11;106473;1252;75152;-75
2024/04/06 09:30:13;;;;;;;2.20;1.80;;;;;;;21.33;42.05;99666.66;106467;1260;61205;-78
2024/04/06 09:32:41;;;;;;;3.20;1.70;;;;;;;21.54;41.48;99660.93;106343;1258;61357;-77
2024/04/06 09:35:08;;;;;;;2.60;1.80;;;;;;;21.73;41.44;99667.05;106287;1254;75101;-75
2024/04/06 09:37:38;;;;;;;3.80;1.80;;;;;;;22.00;40.94;99666.85;106131;1255;72638;-76
2024/04/06 09:40:09;;;;;;;2.80;1.80;;;;;;;22.38;40.54;99659.20;106972;1254;73842;-77
2024/04/06 09:42:39;;;;;;;3.10;1.90;;;;;;;22.71;39.47;99651.71;108232;1253;60947;-75
2024/04/06 09:45:07;;;;;;;3.00;2.70;;;;;;;22.76;39.48;99656.48;108161;1254;59312;-78
2024/04/06 09:47:35;;;;;;;3.70;1.90;;;;;;;22.46;39.46;99654.02;106823;1253;76635;-77
2024/04/06 09:50:03;;;;;;;2.90;2.10;;;;;;;22.07;39.79;99647.95;106497;1253;72225;-75
2024/04/06 09:52:31;;;;;;;2.60;1.70;;;;;;;21.69;40.46;99642.54;106487;1253;73952;-78
2024/04/06 09:54:58;;;;;;;2.80;1.80;;;;;;;21.36;40.42;99653.16;106435;1253;61440;-75
2024/04/06 09:57:25;;;;;;;2.90;2.20;;;;;;;20.93;40.78;99646.51;106112;1254;61278;-77
2024/04/06 10:00:00;;;;;;;2.70;1.50;;;;;;;20.50;41.89;99647.75;106676;1254;76050;-76
2024/04/06 10:02:32;;;;;;;3.10;1.90;;;;;;;20.12;42.66;99633.96;108558;1253;72481;-76
2024/04/06 10:05:01;;;;;;;3.20;1.80;;;;;;;19.90;42.81;99644.15;108892;1254;71732;-75
2024/04/06 10:07:30;;;;;;;3.60;2.00;;;;;;;19.71;42.63;99648.75;108731;1253;59983;-76
2024/04/06 10:10:05;;;;;;;2.80;2.00;;;;;;;19.50;43.02;99641.54;109017;1253;62297;-77
2024/04/06 10:12:46;;;;;;;4.10;2.20;;;;;;;19.29;43.35;99635.93;108880;1253;75663;-77
2024/04/06 10:15:20;;;;;;;2.10;1.80;;;;;;;19.19;43.49;99629.69;108932;1254;68782;-76
2024/04/06 10:17:50;;;;;;;4.40;1.70;;;;;;;19.13;43.24;99628.48;108823;1254;70366;-77
2024/04/06 10:20:22;;;;;;;2.90;1.40;;;;;;;19.10;42.95;99620.33;108833;1253;61186;-77
2024/04/06 10:23:00;;;;;;;2.80;1.70;;;;;;;19.08;42.65;99628.73;108883;1253;61044;-76
2024/04/06 10:25:32;;;;;;;2.40;1.60;;;;;;;19.02;42.01;99625.72;109182;1254;75555;-75
2024/04/06 10:28:03;;;;;;;2.00;1.70;;;;;;;18.95;41.94;99623.16;109160;1253;71157;-78
2024/04/06 10:30:37;;;;;;;3.70;1.50;;;;;;;18.95;42.40;99620.39;109155;1253;73828;-78
2024/04/06 10:33:04;;;;;;;2.40;1.50;;;;;;;18.95;42.92;99614.79;108901;1253;61016;-78
2024/04/06 10:35:32;;;;;;;2.70;1.60;;;;;;;19.00;43.25;99616.23;108789;1254;240864;-77
2024/04/06 10:39:27;;;;;;;2.60;1.50;;;;;;;19.19;43.21;99612.28;104637;1292;601278;-76
2024/04/06 10:41:54;;;;;;;3.30;1.90;;;;;;;19.25;42.94;99612.83;106815;1266;59766;-75
2024/04/06 10:44:21;;;;;;;2.90;1.80;;;;;;;19.28;42.98;99612.35;107180;1272;61437;-75
2024/04/06 10:46:49;;;;;;;4.10;1.80;;;;;;;19.33;42.99;99601.20;107489;1267;74801;-77
2024/04/06 10:49:17;;;;;;;3.10;1.80;;;;;;;19.47;43.01;99603.65;106878;1269;67892;-77
2024/04/06 10:51:44;;;;;;;3.90;1.80;;;;;;;19.62;42.66;99614.70;106641;1263;73472;-76
2024/04/06 10:54:12;;;;;;;2.40;1.80;;;;;;;19.68;42.34;99611.52;106143;1263;170722;-76
2024/04/06 10:56:40;;;;;;;2.40;1.60;;;;;;;19.60;42.60;99590.36;107350;1257;60033;-75
2024/04/06 10:59:09;;;;;;;1.60;1.40;;;;;;;19.58;42.69;99591.98;108020;1257;71451;-78
2024/04/06 11:01:39;;;;;;;3.40;1.80;;;;;;;19.53;42.80;99594.00;106646;1258;68937;-77
2024/04/06 11:04:11;;;;;;;2.70;1.40;;;;;;;19.45;43.04;99585.16;106652;1257;70628;-76
2024/04/06 11:06:38;;;;;;;1.90;1.60;;;;;;;19.38;43.34;99587.16;106309;1258;61008;-76
2024/04/06 11:09:10;;;;;;;2.30;1.70;;;;;;;19.34;43.51;99579.77;106272;1263;60414;-77
2024/04/06 11:11:38;;;;;;;3.90;1.80;;;;;;;19.34;43.48;99576.11;106626;1257;72951;-77
2024/04/06 11:14:08;;;;;;;3.60;1.90;;;;;;;19.41;43.30;99567.89;107414;1257;68887;-76
2024/04/06 11:16:36;;;;;;;3.30;2.00;;;;;;;19.53;43.08;99566.09;106485;1263;73290;-78
2024/04/06 11:19:03;;;;;;;2.30;1.90;;;;;;;19.64;43.11;99572.39;105932;1256;62241;-78
2024/04/06 11:21:31;;;;;;;4.30;2.20;;;;;;;19.66;43.30;99570.50;105926;1262;60461;-76
2024/04/06 11:23:58;;;;;;;7.00;2.00;;;;;;;19.59;43.70;99562.13;106893;1261;72912;-77
2024/04/06 11:26:27;;;;;;;3.00;2.00;;;;;;;19.51;44.02;99561.61;106161;1260;70298;-76
2024/04/06 11:28:54;;;;;;;3.70;2.10;;;;;;;19.39;44.62;99568.30;105606;1262;74867;-76